createdAt,value
2022-08-02T00:00:43.280Z,6.05
2022-08-02T00:03:09.714Z,8.27
2022-08-02T00:05:36.099Z,5.20
2022-08-02T00:08:02.682Z,7.60
2022-08-02T00:10:29.144Z,5.40
2022-08-02T00:12:57.096Z,4.65
2022-08-02T00:15:23.538Z,6.93
2022-08-02T00:17:50.025Z,5.30
2022-08-02T00:20:16.576Z,4.68
2022-08-02T00:22:43.065Z,9.00
2022-08-02T00:25:09.451Z,4.78
2022-08-02T00:27:35.877Z,4.68
2022-08-02T00:30:02.285Z,5.95
2022-08-02T00:32:28.633Z,7.35
2022-08-02T00:34:55.064Z,3.97
2022-08-02T00:37:21.501Z,6.38
2022-08-02T00:39:47.914Z,6.03
2022-08-02T00:42:15.303Z,4.90
2022-08-02T00:44:41.809Z,6.53
2022-08-02T00:47:08.215Z,5.38
2022-08-02T00:49:34.638Z,5.72
2022-08-02T00:52:01.535Z,5.53
2022-08-02T00:54:27.991Z,4.78
2022-08-02T00:56:54.510Z,4.85
2022-08-02T00:59:23.508Z,4.72
2022-08-02T01:01:56.406Z,5.15
2022-08-02T01:04:29.933Z,6.53
2022-08-02T01:06:57.360Z,4.32
2022-08-02T01:09:23.732Z,6.43
2022-08-02T01:11:50.150Z,4.25
2022-08-02T01:14:16.592Z,8.27
2022-08-02T01:16:46.463Z,4.45
2022-08-02T01:19:23.530Z,6.35
2022-08-02T01:21:55.472Z,8.27
2022-08-02T01:24:35.354Z,8.93
2022-08-02T01:27:20.389Z,6.78
2022-08-02T01:29:51.845Z,5.57
2022-08-02T01:32:19.235Z,9.30
2022-08-02T01:35:01.150Z,6.88
2022-08-02T01:37:36.786Z,5.80
2022-08-02T01:40:14.062Z,6.60
2022-08-02T01:42:43.354Z,8.30
2022-08-02T01:45:11.510Z,7.57
2022-08-02T01:47:39.617Z,5.53
2022-08-02T01:50:07.403Z,7.65
2022-08-02T01:52:35.579Z,3.85
2022-08-02T01:55:02.012Z,4.32
2022-08-02T01:57:31.639Z,7.05
2022-08-02T02:00:01.667Z,8.68
2022-08-02T02:02:31.653Z,8.73
2022-08-02T02:04:59.020Z,8.80
2022-08-02T02:07:25.941Z,5.18
2022-08-02T02:09:52.788Z,5.70
2022-08-02T02:12:20.109Z,7.18
2022-08-02T02:14:50.034Z,5.07
2022-08-02T02:18:11.687Z,6.55
2022-08-02T02:20:06.497Z,5.55
2022-08-02T02:22:32.872Z,5.32
2022-08-02T02:24:59.273Z,5.22
2022-08-02T02:27:27.186Z,7.55
2022-08-02T02:29:53.726Z,7.72
2022-08-02T02:32:20.922Z,4.53
2022-08-02T02:34:48.946Z,5.75
2022-08-02T02:37:21.636Z,6.97
2022-08-02T02:39:49.927Z,6.60
2022-08-02T02:42:17.569Z,7.82
2022-08-02T02:44:46.240Z,5.30
2022-08-02T02:47:14.217Z,6.65
2022-08-02T02:49:41.503Z,6.60
2022-08-02T02:52:08.314Z,4.95
2022-08-02T02:54:36.374Z,7.90
2022-08-02T02:57:03.681Z,10.32
2022-08-02T02:59:30.533Z,6.50
2022-08-02T03:01:58.298Z,11.88
2022-08-02T03:04:26.957Z,6.38
2022-08-02T03:06:53.370Z,8.82
2022-08-02T03:09:19.890Z,7.22
2022-08-02T03:11:46.343Z,10.27
2022-08-02T03:14:13.346Z,10.57
2022-08-02T03:16:47.018Z,10.70
2022-08-02T03:19:13.740Z,8.80
2022-08-02T03:21:41.304Z,7.47
2022-08-02T03:24:08.032Z,7.13
2022-08-02T03:26:34.745Z,8.55
2022-08-02T03:29:01.268Z,9.82
2022-08-02T03:31:37.348Z,7.97
2022-08-02T03:34:03.958Z,8.27
2022-08-02T03:36:31.603Z,5.03
2022-08-02T03:38:58.224Z,7.80
2022-08-02T03:41:24.940Z,9.90
2022-08-02T03:43:51.761Z,10.23
2022-08-02T03:46:20.190Z,6.30
2022-08-02T03:48:47.828Z,6.13
2022-08-02T03:51:14.319Z,8.20
2022-08-02T03:53:40.860Z,9.88
2022-08-02T03:56:07.224Z,7.75
2022-08-02T03:58:34.173Z,10.50
2022-08-02T04:01:00.708Z,9.75
2022-08-02T04:03:27.369Z,6.63
2022-08-02T04:06:03.542Z,7.10
2022-08-02T04:08:35.244Z,7.45
2022-08-02T04:11:22.477Z,8.80
2022-08-02T04:13:48.847Z,8.27
2022-08-02T04:16:20.269Z,6.80
2022-08-02T04:18:51.877Z,11.10
2022-08-02T04:21:19.390Z,7.65
2022-08-02T04:23:46.383Z,10.55
2022-08-02T04:26:13.200Z,13.60
2022-08-02T04:28:40.352Z,8.98
2022-08-02T04:31:07.712Z,10.45
2022-08-02T04:33:34.821Z,9.75
2022-08-02T04:36:01.469Z,6.65
2022-08-02T04:38:27.939Z,8.73
2022-08-02T04:40:55.446Z,6.28
2022-08-02T04:43:22.307Z,6.82
2022-08-02T04:45:50.056Z,7.85
2022-08-02T04:48:16.437Z,8.45
2022-08-02T04:50:42.889Z,6.68
2022-08-02T04:53:09.491Z,7.03
2022-08-02T04:55:35.978Z,10.48
2022-08-02T04:58:06.713Z,7.30
2022-08-02T05:00:36.323Z,17.00
2022-08-02T05:03:02.815Z,11.35
2022-08-02T05:05:29.410Z,12.57
2022-08-02T05:07:55.896Z,9.55
2022-08-02T05:10:22.696Z,10.75
2022-08-02T05:12:49.328Z,11.93
2022-08-02T05:15:18.378Z,12.75
2022-08-02T05:17:47.972Z,12.63
2022-08-02T05:20:15.913Z,12.23
2022-08-02T05:22:42.338Z,13.93
2022-08-02T05:25:09.031Z,11.75
2022-08-02T05:27:35.630Z,8.07
2022-08-02T05:30:02.568Z,10.45
2022-08-02T05:32:29.140Z,7.32
2022-08-02T05:34:55.480Z,9.80
2022-08-02T05:37:21.818Z,7.78
2022-08-02T05:39:55.968Z,10.40
2022-08-02T05:42:23.012Z,6.85
2022-08-02T05:44:49.453Z,12.32
2022-08-02T05:47:18.884Z,9.70
2022-08-02T05:49:45.302Z,8.85
2022-08-02T05:52:14.518Z,10.82
2022-08-02T05:54:55.128Z,11.48
2022-08-02T05:57:21.718Z,8.27
2022-08-02T05:59:57.898Z,7.60
2022-08-02T06:02:34.840Z,12.48
2022-08-02T06:05:05.391Z,7.88
2022-08-02T06:07:34.363Z,9.38
2022-08-02T06:10:01.675Z,9.13
2022-08-02T06:12:29.528Z,8.82
2022-08-02T06:14:56.345Z,8.57
2022-08-02T06:17:24.201Z,7.88
2022-08-02T06:19:52.285Z,10.25
2022-08-02T06:22:33.596Z,11.50
2022-08-02T06:25:02.794Z,9.75
2022-08-02T06:27:30.071Z,8.50
2022-08-02T06:29:56.547Z,6.82
2022-08-02T06:32:23.268Z,10.48
2022-08-02T06:34:49.708Z,8.93
2022-08-02T06:37:21.878Z,8.70
2022-08-02T06:39:50.063Z,9.98
2022-08-02T06:42:24.139Z,10.23
2022-08-02T06:44:57.429Z,12.10
2022-08-02T06:47:24.606Z,9.68
2022-08-02T06:49:54.142Z,10.38
2022-08-02T06:52:31.277Z,8.82
2022-08-02T06:54:59.179Z,12.77
2022-08-02T06:57:25.732Z,8.38
2022-08-02T06:59:52.166Z,14.38
2022-08-02T07:02:18.610Z,9.57
2022-08-02T07:04:45.007Z,9.05
2022-08-02T07:07:11.399Z,10.93
2022-08-02T07:09:37.801Z,9.00
2022-08-02T07:12:04.454Z,8.10
2022-08-02T07:14:30.872Z,10.10
2022-08-02T07:16:58.821Z,10.70
2022-08-02T07:19:37.813Z,10.35
2022-08-02T07:22:05.352Z,8.65
2022-08-02T07:24:31.908Z,8.48
2022-08-02T07:27:13.990Z,7.18
2022-08-02T07:29:46.248Z,5.57
2022-08-02T07:32:34.042Z,9.68
2022-08-02T07:35:02.660Z,6.20
2022-08-02T07:37:54.057Z,7.63
2022-08-02T07:40:21.145Z,6.63
2022-08-02T07:42:54.543Z,7.63
2022-08-02T07:45:23.456Z,6.63
2022-08-02T07:47:49.932Z,5.00
2022-08-02T07:50:17.762Z,9.18
2022-08-02T07:52:44.772Z,8.90
2022-08-02T07:55:11.787Z,5.55
2022-08-02T07:57:43.936Z,5.93
2022-08-02T08:00:12.224Z,4.60
2022-08-02T08:02:39.335Z,4.40
2022-08-02T08:05:06.973Z,5.15
2022-08-02T08:07:33.519Z,3.25
2022-08-02T08:10:00.946Z,4.30
2022-08-02T08:12:27.795Z,6.00
2022-08-02T08:14:54.176Z,9.25
2022-08-02T08:17:20.821Z,6.55
2022-08-02T08:19:50.766Z,2.10
2022-08-02T08:22:18.430Z,4.40
2022-08-02T08:24:45.316Z,4.53
2022-08-02T08:27:14.657Z,3.33
2022-08-02T08:29:42.438Z,5.95
2022-08-02T08:32:12.821Z,4.63
2022-08-02T08:34:42.643Z,4.20
2022-08-02T08:37:09.378Z,4.25
2022-08-02T08:39:56.740Z,2.97
2022-08-02T08:42:24.138Z,7.00
2022-08-02T08:44:51.510Z,3.38
2022-08-02T08:47:18.037Z,10.18
2022-08-02T08:49:52.774Z,4.93
2022-08-02T08:52:20.246Z,4.40
2022-08-02T08:54:48.582Z,2.95
2022-08-02T08:57:16.548Z,7.80
2022-08-02T08:59:42.958Z,4.32
2022-08-02T09:02:16.870Z,8.63
2022-08-02T09:04:54.467Z,3.05
2022-08-02T09:07:21.681Z,3.33
2022-08-02T09:09:48.088Z,2.60
2022-08-02T09:12:18.195Z,7.05
2022-08-02T09:14:46.486Z,4.10
2022-08-02T09:17:17.217Z,2.83
2022-08-02T09:19:46.279Z,3.63
2022-08-02T09:22:13.777Z,4.47
2022-08-02T09:24:46.738Z,4.25
2022-08-02T09:27:22.649Z,5.85
2022-08-02T09:30:12.025Z,3.08
2022-08-02T09:32:46.997Z,5.63
2022-08-02T09:35:15.274Z,4.00
2022-08-02T09:37:42.800Z,4.45
2022-08-02T09:40:12.257Z,5.80
2022-08-02T09:42:57.455Z,4.15
2022-08-02T09:45:29.799Z,4.97
2022-08-02T09:47:56.151Z,3.45
2022-08-02T09:50:22.643Z,4.63
2022-08-02T09:52:51.257Z,3.47
2022-08-02T09:55:17.870Z,3.38
2022-08-02T09:57:44.285Z,2.45
2022-08-02T10:00:27.015Z,2.42
2022-08-02T10:03:22.381Z,3.28
2022-08-02T10:05:54.046Z,4.13
2022-08-02T10:08:22.803Z,5.07
2022-08-02T10:10:49.249Z,4.28
2022-08-02T10:13:21.681Z,2.22
2022-08-02T10:15:50.653Z,1.73
2022-08-02T10:18:36.930Z,2.38
2022-08-02T10:21:06.481Z,3.97
2022-08-02T10:23:34.662Z,3.85
2022-08-02T10:26:03.344Z,1.50
2022-08-02T10:28:32.701Z,2.22
2022-08-02T10:31:04.470Z,3.40
2022-08-02T10:33:32.902Z,1.95
2022-08-02T10:36:04.261Z,6.30
2022-08-02T10:38:34.009Z,2.45
2022-08-02T10:41:00.481Z,1.52
2022-08-02T10:43:36.146Z,3.15
2022-08-02T10:46:20.816Z,6.47
2022-08-02T10:49:23.997Z,3.13
2022-08-02T10:51:53.328Z,1.80
2022-08-02T10:54:23.197Z,1.63
2022-08-02T10:56:50.978Z,5.40
2022-08-02T10:59:36.648Z,3.60
2022-08-02T11:04:29.849Z,1.25
2022-08-02T11:07:14.273Z,1.83
2022-08-02T11:09:41.786Z,2.97
2022-08-02T11:12:09.862Z,1.23
2022-08-02T11:14:43.468Z,6.72
2022-08-02T11:17:09.947Z,2.60
2022-08-02T11:19:56.275Z,1.35
2022-08-02T11:22:25.960Z,2.20
2022-08-02T11:24:52.580Z,3.10
2022-08-02T11:27:21.712Z,2.20
2022-08-02T11:29:51.557Z,2.28
2022-08-02T11:32:19.014Z,2.35
2022-08-02T11:34:50.247Z,1.63
2022-08-02T11:37:28.747Z,2.85
2022-08-02T11:39:55.171Z,1.60
2022-08-02T11:42:21.591Z,2.13
2022-08-02T11:44:49.195Z,1.30
2022-08-02T11:47:15.565Z,3.35
2022-08-02T11:49:42.897Z,3.92
2022-08-02T11:52:11.061Z,3.08
2022-08-02T11:54:40.409Z,2.90
2022-08-02T11:57:18.982Z,2.22
2022-08-02T11:59:48.010Z,4.47
2022-08-02T12:02:15.604Z,4.53
2022-08-02T12:04:42.038Z,3.20
2022-08-02T12:07:10.651Z,2.38
2022-08-02T12:09:41.156Z,2.97
2022-08-02T12:12:07.838Z,1.77
2022-08-02T12:14:42.033Z,1.50
2022-08-02T12:17:26.936Z,1.98
2022-08-02T12:19:53.296Z,1.30
2022-08-02T12:22:24.282Z,4.30
2022-08-02T12:24:51.983Z,8.27
2022-08-02T12:27:32.235Z,1.23
2022-08-02T12:30:06.697Z,3.58
2022-08-02T12:32:33.172Z,3.08
2022-08-02T12:35:08.472Z,2.42
2022-08-02T12:37:35.488Z,4.50
2022-08-02T12:40:20.870Z,2.47
2022-08-02T12:42:59.505Z,3.95
2022-08-02T12:45:36.531Z,2.35
2022-08-02T12:48:07.765Z,3.22
2022-08-02T12:50:37.126Z,2.20
2022-08-02T12:53:10.756Z,4.20
2022-08-02T12:56:01.071Z,3.03
2022-08-02T12:58:30.285Z,2.28
2022-08-02T13:00:58.172Z,5.55
2022-08-02T13:04:09.754Z,3.50
2022-08-02T13:06:41.343Z,2.33
2022-08-02T13:09:00.639Z,3.10
2022-08-02T13:11:27.184Z,1.50
2022-08-02T13:13:53.620Z,5.25
2022-08-02T13:16:30.544Z,2.03
2022-08-02T13:18:57.742Z,5.53
2022-08-02T13:21:41.502Z,1.48
2022-08-02T13:24:33.015Z,1.75
2022-08-02T13:26:57.797Z,5.28
2022-08-02T13:29:25.693Z,6.25
2022-08-02T13:31:52.216Z,6.00
2022-08-02T13:34:19.803Z,1.63
2022-08-02T13:36:46.207Z,4.13
2022-08-02T13:39:12.729Z,3.17
2022-08-02T13:41:39.133Z,3.40
2022-08-02T13:44:10.493Z,1.50
2022-08-02T13:46:45.378Z,3.85
2022-08-02T13:49:17.897Z,2.58
2022-08-02T13:51:45.985Z,3.45
2022-08-02T13:54:12.349Z,6.28
2022-08-02T13:56:38.732Z,4.78
2022-08-02T13:59:54.723Z,2.78
2022-08-02T14:01:52.086Z,2.97
2022-08-02T14:04:18.470Z,1.70
2022-08-02T14:06:44.885Z,1.90
2022-08-02T14:09:15.733Z,1.60
2022-08-02T14:11:43.489Z,2.42
2022-08-02T14:14:16.013Z,1.80
2022-08-02T14:16:44.524Z,3.45
2022-08-02T14:19:16.022Z,4.15
2022-08-02T14:21:46.632Z,3.17
2022-08-02T14:24:14.798Z,4.35
2022-08-02T14:26:41.171Z,3.55
2022-08-02T14:29:07.634Z,2.67
2022-08-02T14:31:33.999Z,3.33
2022-08-02T14:34:00.424Z,3.33
2022-08-02T14:36:27.627Z,2.92
2022-08-02T14:38:54.965Z,7.65
2022-08-02T14:41:21.371Z,6.15
2022-08-02T14:44:07.142Z,4.55
2022-08-02T14:46:38.257Z,2.97
2022-08-02T14:49:05.283Z,3.53
2022-08-02T14:51:32.269Z,1.95
2022-08-02T14:54:03.121Z,4.13
2022-08-02T14:56:30.208Z,5.75
2022-08-02T14:58:56.685Z,2.47
2022-08-02T15:01:25.918Z,5.18
2022-08-02T15:03:53.040Z,3.95
2022-08-02T15:06:19.642Z,3.20
2022-08-02T15:08:46.087Z,2.00
2022-08-02T15:11:12.453Z,1.50
2022-08-02T15:13:42.558Z,4.85
2022-08-02T15:16:09.553Z,2.30
2022-08-02T15:18:35.963Z,5.13
2022-08-02T15:21:08.036Z,3.05
2022-08-02T15:23:48.836Z,1.48
2022-08-02T15:26:15.247Z,1.85
2022-08-02T15:28:41.632Z,3.25
2022-08-02T15:31:08.050Z,5.93
2022-08-02T15:33:34.472Z,2.50
2022-08-02T15:36:03.313Z,3.90
2022-08-02T15:38:29.781Z,6.45
2022-08-02T15:40:56.140Z,3.35
2022-08-02T15:43:22.624Z,4.90
2022-08-02T15:45:49.036Z,7.18
2022-08-02T15:48:16.336Z,3.20
2022-08-02T15:50:42.706Z,3.15
2022-08-02T15:53:09.288Z,2.60
2022-08-02T15:55:51.975Z,2.60
2022-08-02T15:58:22.541Z,1.85
2022-08-02T16:00:49.203Z,4.70
2022-08-02T16:03:15.585Z,2.80
2022-08-02T16:05:42.022Z,3.80
2022-08-02T16:08:08.428Z,4.88
2022-08-02T16:10:34.808Z,4.07
2022-08-02T16:13:20.071Z,3.13
2022-08-02T16:15:46.427Z,2.38
2022-08-02T16:18:12.783Z,2.17
2022-08-02T16:20:39.182Z,6.47
2022-08-02T16:23:05.588Z,3.33
2022-08-02T16:25:32.191Z,3.13
2022-08-02T16:28:07.186Z,4.93
2022-08-02T16:30:34.354Z,8.40
2022-08-02T16:33:00.724Z,3.38
2022-08-02T16:35:28.340Z,5.78
2022-08-02T16:37:54.849Z,5.28
2022-08-02T16:40:21.499Z,3.65
2022-08-02T16:42:50.755Z,3.28
2022-08-02T16:45:20.034Z,2.63
2022-08-02T16:47:56.581Z,6.20
2022-08-02T16:50:28.044Z,3.08
2022-08-02T16:52:55.379Z,4.60
2022-08-02T16:55:21.852Z,6.82
2022-08-02T16:57:50.272Z,5.15
2022-08-02T17:00:17.264Z,3.42
2022-08-02T17:02:43.920Z,2.00
2022-08-02T17:05:14.147Z,3.13
2022-08-02T17:08:06.196Z,3.67
2022-08-02T17:10:29.234Z,6.25
2022-08-02T17:12:58.664Z,3.97
2022-08-02T17:16:16.657Z,5.28
2022-08-02T17:18:26.543Z,2.53
2022-08-02T17:20:53.173Z,5.40
2022-08-02T17:23:22.136Z,4.60
2022-08-02T17:25:48.594Z,8.00
2022-08-02T17:28:19.164Z,3.03
2022-08-02T17:30:45.566Z,3.22
2022-08-02T17:33:12.064Z,3.10
2022-08-02T17:35:43.921Z,3.70
2022-08-02T17:38:26.208Z,2.28
2022-08-02T17:40:54.790Z,5.78
2022-08-02T17:43:21.602Z,5.85
2022-08-02T17:46:00.881Z,3.63
2022-08-02T17:48:50.139Z,7.10
2022-08-02T17:52:15.786Z,3.75
2022-08-02T17:54:08.528Z,3.22
2022-08-02T17:56:36.580Z,4.50
2022-08-02T17:59:22.824Z,6.63
2022-08-02T18:02:11.495Z,5.72
2022-08-02T18:04:38.587Z,4.07
2022-08-02T18:07:09.905Z,5.03
2022-08-02T18:09:36.745Z,5.28
2022-08-02T18:12:03.169Z,4.80
2022-08-02T18:14:30.310Z,8.20
2022-08-02T18:16:56.824Z,5.20
2022-08-02T18:19:23.841Z,9.48
2022-08-02T18:22:09.471Z,7.18
2022-08-02T18:24:37.458Z,12.07
2022-08-02T18:27:04.629Z,6.45
2022-08-02T18:29:38.497Z,7.32
2022-08-02T18:32:05.521Z,3.80
2022-08-02T18:34:38.346Z,5.15
2022-08-02T18:37:05.729Z,6.22
2022-08-02T18:39:33.473Z,5.32
2022-08-02T18:42:07.196Z,6.00
2022-08-02T18:44:33.675Z,3.08
2022-08-02T18:47:00.063Z,5.47
2022-08-02T18:52:30.655Z,3.15
2022-08-02T18:54:58.117Z,5.60
2022-08-02T18:58:02.453Z,5.28
2022-08-02T19:00:13.493Z,7.43
2022-08-02T19:02:40.047Z,3.58
2022-08-02T19:05:07.185Z,11.73
2022-08-02T19:07:50.643Z,2.35
2022-08-02T19:10:17.854Z,4.38
2022-08-02T19:12:44.267Z,3.33
2022-08-02T19:15:14.425Z,5.93
2022-08-02T19:17:54.882Z,8.70
2022-08-02T19:20:24.097Z,6.65
2022-08-02T19:22:53.751Z,8.30
2022-08-02T19:25:20.352Z,4.07
2022-08-02T19:27:54.642Z,7.78
2022-08-02T19:30:21.301Z,10.95
2022-08-02T19:32:59.353Z,6.55
2022-08-02T19:35:30.830Z,11.00
2022-08-02T19:38:05.772Z,10.23
2022-08-02T19:40:32.410Z,14.73
2022-08-02T19:44:25.692Z,9.48
2022-08-02T19:45:50.089Z,12.23
2022-08-02T19:48:17.289Z,13.52
2022-08-02T19:53:46.847Z,10.73
2022-08-02T19:56:20.719Z,8.27
2022-08-02T19:58:47.999Z,19.17
2022-08-02T20:01:16.839Z,7.65
2022-08-02T20:03:51.255Z,12.32
2022-08-02T20:06:19.091Z,13.55
2022-08-02T20:08:53.243Z,8.07
2022-08-02T20:11:24.500Z,8.70
2022-08-02T20:13:51.976Z,8.02
2022-08-02T20:16:27.276Z,12.85
2022-08-02T20:18:55.121Z,7.82
2022-08-02T20:21:34.119Z,9.38
2022-08-02T20:24:03.563Z,7.93
2022-08-02T20:26:30.530Z,6.35
2022-08-02T20:28:58.093Z,10.80
2022-08-02T20:31:44.665Z,11.95
2022-08-02T20:34:11.008Z,7.45
2022-08-02T20:36:39.115Z,6.13
2022-08-02T20:39:05.507Z,6.57
2022-08-02T20:41:36.936Z,8.43
2022-08-02T20:44:15.728Z,7.57
2022-08-02T20:46:56.220Z,9.20
2022-08-02T20:49:41.075Z,6.55
2022-08-02T20:52:23.689Z,11.07
2022-08-02T20:54:51.006Z,12.73
2022-08-02T20:57:17.400Z,11.27
2022-08-02T20:59:44.091Z,9.63
2022-08-02T21:02:18.819Z,10.85
2022-08-02T21:04:46.772Z,6.30
2022-08-02T21:07:13.295Z,7.82
2022-08-02T21:09:52.780Z,9.20
2022-08-02T21:12:29.662Z,6.50
2022-08-02T21:14:56.690Z,9.88
2022-08-02T21:20:09.814Z,5.05
2022-08-02T21:22:37.243Z,7.90
2022-08-02T21:25:03.729Z,7.72
2022-08-02T21:27:53.447Z,6.65
2022-08-02T21:30:24.321Z,8.18
2022-08-02T21:32:54.510Z,9.57
2022-08-02T21:35:21.926Z,11.70
2022-08-02T21:37:48.410Z,6.55
2022-08-02T21:40:15.117Z,5.82
2022-08-02T21:42:41.571Z,8.27
2022-08-02T21:45:12.065Z,9.20
2022-08-02T21:47:44.642Z,7.13
2022-08-02T21:50:15.988Z,5.07
2022-08-02T21:52:42.932Z,7.32
2022-08-02T21:55:23.899Z,6.50
2022-08-02T21:57:50.661Z,9.75
2022-08-02T22:00:28.409Z,11.43
2022-08-02T22:02:55.322Z,4.90
2022-08-02T22:05:21.763Z,4.95
2022-08-02T22:07:48.135Z,9.32
2022-08-02T22:10:17.046Z,6.78
2022-08-02T22:12:43.411Z,4.43
2022-08-02T22:15:11.453Z,6.07
2022-08-02T22:17:51.838Z,6.05
2022-08-02T22:20:21.273Z,5.25
2022-08-02T22:25:37.537Z,5.90
2022-08-02T22:28:37.471Z,10.25
2022-08-02T22:30:56.598Z,6.78
2022-08-02T22:34:00.189Z,9.15
2022-08-02T22:36:28.502Z,7.00
2022-08-02T22:38:55.027Z,9.25
2022-08-02T22:41:22.539Z,7.47
2022-08-02T22:43:49.464Z,6.95
2022-08-02T22:46:16.663Z,5.38
2022-08-02T22:48:44.016Z,9.32
2022-08-02T22:51:10.662Z,5.40
2022-08-02T22:53:38.971Z,7.93
2022-08-02T22:56:05.621Z,8.23
2022-08-02T22:58:32.701Z,7.72
2022-08-02T22:58:45.657Z,4.85
2022-08-02T22:59:02.309Z,10.70
2022-08-02T22:59:05.809Z,9.73
2022-08-02T23:00:59.697Z,9.30
2022-08-02T23:03:26.184Z,6.10
2022-08-02T23:05:52.713Z,6.80
2022-08-02T23:08:19.132Z,8.65
2022-08-02T23:10:45.731Z,5.22
2022-08-02T23:13:12.199Z,5.80
2022-08-02T23:15:57.579Z,9.23
2022-08-02T23:18:42.548Z,8.17
2022-08-02T23:21:08.965Z,11.55
2022-08-02T23:23:35.346Z,5.47
2022-08-02T23:26:01.757Z,12.18
2022-08-02T23:28:28.211Z,6.13
2022-08-02T23:30:54.789Z,6.50
2022-08-02T23:33:21.214Z,6.93
2022-08-02T23:35:47.629Z,5.82
2022-08-02T23:38:14.038Z,8.30
2022-08-02T23:40:41.309Z,6.10
2022-08-02T23:43:14.289Z,6.85
2022-08-02T23:45:42.777Z,6.10
2022-08-02T23:48:09.109Z,8.07
2022-08-02T23:50:35.474Z,9.55
2022-08-02T23:53:02.033Z,7.22
2022-08-02T23:55:28.450Z,5.53
2022-08-02T23:57:54.847Z,8.90
